sensor_id;sensor_type;location;lat;lon;timestamp;pressure;altitude;pressure_sealevel;temperature
40624;BMP280;26325;48.594;11.650;2023-04-01T00:02:05;95348.66;;;8.82
40624;BMP280;26325;48.594;11.650;2023-04-01T00:04:31;95352.78;;;8.88
40624;BMP280;26325;48.594;11.650;2023-04-01T00:06:57;95347.13;;;8.76
40624;BMP280;26325;48.594;11.650;2023-04-01T00:09:23;95357.94;;;8.69
40624;BMP280;26325;48.594;11.650;2023-04-01T00:11:48;95344.00;;;8.70
40624;BMP280;26325;48.594;11.650;2023-04-01T00:14:14;95356.13;;;8.74
40624;BMP280;26325;48.594;11.650;2023-04-01T00:16:39;95350.97;;;8.64
40624;BMP280;26325;48.594;11.650;2023-04-01T00:19:07;95353.53;;;8.69
40624;BMP280;26325;48.594;11.650;2023-04-01T00:21:33;95348.13;;;8.61
40624;BMP280;26325;48.594;11.650;2023-04-01T00:23:58;95368.22;;;8.59
40624;BMP280;26325;48.594;11.650;2023-04-01T00:26:27;95347.09;;;8.62
40624;BMP280;26325;48.594;11.650;2023-04-01T00:28:52;95349.41;;;8.63
40624;BMP280;26325;48.594;11.650;2023-04-01T00:31:18;95348.41;;;8.59
40624;BMP280;26325;48.594;11.650;2023-04-01T00:33:43;95353.53;;;8.69
40624;BMP280;26325;48.594;11.650;2023-04-01T00:36:11;95347.88;;;8.82
40624;BMP280;26325;48.594;11.650;2023-04-01T00:38:37;95351.50;;;8.76
40624;BMP280;26325;48.594;11.650;2023-04-01T00:41:03;95353.78;;;8.77
40624;BMP280;26325;48.594;11.650;2023-04-01T00:43:30;95350.69;;;8.71
40624;BMP280;26325;48.594;11.650;2023-04-01T00:45:55;95337.84;;;8.75
40624;BMP280;26325;48.594;11.650;2023-04-01T00:48:36;95344.00;;;8.65
40624;BMP280;26325;48.594;11.650;2023-04-01T00:51:05;95358.97;;;8.68
40624;BMP280;26325;48.594;11.650;2023-04-01T00:53:32;95341.94;;;8.62
40624;BMP280;26325;48.594;11.650;2023-04-01T00:56:12;95348.66;;;8.58
40624;BMP280;26325;48.594;11.650;2023-04-01T00:58:41;95344.53;;;8.57
40624;BMP280;26325;48.594;11.650;2023-04-01T01:01:08;95332.69;;;8.56
40624;BMP280;26325;48.594;11.650;2023-04-01T01:03:36;95332.16;;;8.54
40624;BMP280;26325;48.594;11.650;2023-04-01T01:06:08;95321.34;;;8.52
40624;BMP280;26325;48.594;11.650;2023-04-01T01:11:08;95327.28;;;8.48
40624;BMP280;26325;48.594;11.650;2023-04-01T01:14:19;95321.59;;;8.46
40624;BMP280;26325;48.594;11.650;2023-04-01T01:16:48;95328.03;;;8.38
40624;BMP280;26325;48.594;11.650;2023-04-01T01:20:00;95312.06;;;8.32
40624;BMP280;26325;48.594;11.650;2023-04-01T01:25:21;95317.22;;;8.32
40624;BMP280;26325;48.594;11.650;2023-04-01T01:30:43;95318.25;;;8.36
40624;BMP280;26325;48.594;11.650;2023-04-01T01:35:57;95328.28;;;8.37
40624;BMP280;26325;48.594;11.650;2023-04-01T01:38:27;95320.59;;;8.42
40624;BMP280;26325;48.594;11.650;2023-04-01T01:40:54;95320.59;;;8.42
40624;BMP280;26325;48.594;11.650;2023-04-01T01:43:33;95314.91;;;8.40
40624;BMP280;26325;48.594;11.650;2023-04-01T01:46:03;95315.19;;;8.48
40624;BMP280;26325;48.594;11.650;2023-04-01T01:48:33;95320.81;;;8.31
40624;BMP280;26325;48.594;11.650;2023-04-01T01:51:03;95310.03;;;8.38
40624;BMP280;26325;48.594;11.650;2023-04-01T01:53:31;95307.44;;;8.43
40624;BMP280;26325;48.594;11.650;2023-04-01T01:55:59;95299.75;;;8.48
40624;BMP280;26325;48.594;11.650;2023-04-01T02:01:01;95310.03;;;8.34
40624;BMP280;26325;48.594;11.650;2023-04-01T02:03:31;95300.00;;;8.32
40624;BMP280;26325;48.594;11.650;2023-04-01T02:05:59;95307.94;;;8.21
40624;BMP280;26325;48.594;11.650;2023-04-01T02:09:03;95307.44;;;8.24
40624;BMP280;26325;48.594;11.650;2023-04-01T02:11:25;95311.28;;;8.26
40624;BMP280;26325;48.594;11.650;2023-04-01T02:16:45;95311.56;;;8.30
40624;BMP280;26325;48.594;11.650;2023-04-01T02:19:12;95316.19;;;8.33
40624;BMP280;26325;48.594;11.650;2023-04-01T02:21:38;95317.72;;;8.24
40624;BMP280;26325;48.594;11.650;2023-04-01T02:24:08;95310.28;;;8.32
40624;BMP280;26325;48.594;11.650;2023-04-01T02:26:34;95314.66;;;8.32
40624;BMP280;26325;48.594;11.650;2023-04-01T02:29:00;95321.34;;;8.37
40624;BMP280;26325;48.594;11.650;2023-04-01T02:31:26;95313.88;;;8.31
40624;BMP280;26325;48.594;11.650;2023-04-01T02:33:54;95323.38;;;8.31
40624;BMP280;26325;48.594;11.650;2023-04-01T02:36:20;95319.78;;;8.22
40624;BMP280;26325;48.594;11.650;2023-04-01T02:38:45;95317.19;;;8.22
40624;BMP280;26325;48.594;11.650;2023-04-01T02:41:11;95319.00;;;8.21
40624;BMP280;26325;48.594;11.650;2023-04-01T02:43:37;95324.91;;;8.22
40624;BMP280;26325;48.594;11.650;2023-04-01T02:46:03;95327.47;;;8.27
40624;BMP280;26325;48.594;11.650;2023-04-01T02:48:30;95333.91;;;8.19
40624;BMP280;26325;48.594;11.650;2023-04-01T02:50:56;95325.44;;;8.29
40624;BMP280;26325;48.594;11.650;2023-04-01T02:53:21;95334.94;;;8.28
40624;BMP280;26325;48.594;11.650;2023-04-01T02:55:49;95333.16;;;8.24
40624;BMP280;26325;48.594;11.650;2023-04-01T02:58:17;95331.06;;;8.26
40624;BMP280;26325;48.594;11.650;2023-04-01T03:00:42;95332.63;;;8.27
40624;BMP280;26325;48.594;11.650;2023-04-01T03:03:08;95348.59;;;8.34
40624;BMP280;26325;48.594;11.650;2023-04-01T03:05:37;95345.75;;;8.35
40624;BMP280;26325;48.594;11.650;2023-04-01T03:08:03;95340.88;;;8.24
40624;BMP280;26325;48.594;11.650;2023-04-01T03:10:29;95342.91;;;8.17
40624;BMP280;26325;48.594;11.650;2023-04-01T03:12:54;95340.34;;;8.17
40624;BMP280;26325;48.594;11.650;2023-04-01T03:15:20;95351.13;;;8.14
40624;BMP280;26325;48.594;11.650;2023-04-01T03:17:45;95352.38;;;8.07
40624;BMP280;26325;48.594;11.650;2023-04-01T03:20:12;95365.00;;;8.08
40624;BMP280;26325;48.594;11.650;2023-04-01T03:22:37;95351.63;;;8.06
40624;BMP280;26325;48.594;11.650;2023-04-01T03:25:04;95359.38;;;8.16
40624;BMP280;26325;48.594;11.650;2023-04-01T03:27:30;95366.56;;;8.14
40624;BMP280;26325;48.594;11.650;2023-04-01T03:29:55;95350.91;;;8.30
40624;BMP280;26325;48.594;11.650;2023-04-01T03:32:21;95355.78;;;8.27
40624;BMP280;26325;48.594;11.650;2023-04-01T03:34:46;95354.75;;;8.28
40624;BMP280;26325;48.594;11.650;2023-04-01T03:37:12;95357.31;;;8.28
40624;BMP280;26325;48.594;11.650;2023-04-01T03:39:37;95354.50;;;8.24
40624;BMP280;26325;48.594;11.650;2023-04-01T03:42:03;95360.94;;;8.32
40624;BMP280;26325;48.594;11.650;2023-04-01T03:44:34;95372.22;;;8.26
40624;BMP280;26325;48.594;11.650;2023-04-01T03:47:00;95375.81;;;8.20
40624;BMP280;26325;48.594;11.650;2023-04-01T03:49:25;95375.22;;;7.98
40624;BMP280;26325;48.594;11.650;2023-04-01T03:51:51;95382.88;;;7.94
40624;BMP280;26325;48.594;11.650;2023-04-01T03:54:17;95376.72;;;7.95
40624;BMP280;26325;48.594;11.650;2023-04-01T03:56:43;95373.13;;;7.91
40624;BMP280;26325;48.594;11.650;2023-04-01T03:59:08;95375.75;;;8.00
40624;BMP280;26325;48.594;11.650;2023-04-01T04:01:34;95383.97;;;8.02
40624;BMP280;26325;48.594;11.650;2023-04-01T04:04:00;95379.38;;;7.99
40624;BMP280;26325;48.594;11.650;2023-04-01T04:06:26;95383.66;;;7.94
40624;BMP280;26325;48.594;11.650;2023-04-01T04:08:51;95381.34;;;7.93
40624;BMP280;26325;48.594;11.650;2023-04-01T04:11:18;95384.44;;;7.90
40624;BMP280;26325;48.594;11.650;2023-04-01T04:13:44;95376.19;;;7.93
40624;BMP280;26325;48.594;11.650;2023-04-01T04:16:09;95384.63;;;7.83
40624;BMP280;26325;48.594;11.650;2023-04-01T04:18:36;95389.28;;;7.86
40624;BMP280;26325;48.594;11.650;2023-04-01T04:21:03;95403.91;;;7.81
40624;BMP280;26325;48.594;11.650;2023-04-01T04:23:29;95390.31;;;7.85
40624;BMP280;26325;48.594;11.650;2023-04-01T04:26:03;95395.69;;;7.84
40624;BMP280;26325;48.594;11.650;2023-04-01T04:28:30;95390.81;;;7.82
40624;BMP280;26325;48.594;11.650;2023-04-01T04:30:56;95397.19;;;7.75
40624;BMP280;26325;48.594;11.650;2023-04-01T04:33:22;95393.13;;;7.84
40624;BMP280;26325;48.594;11.650;2023-04-01T04:35:47;95396.41;;;7.70
40624;BMP280;26325;48.594;11.650;2023-04-01T04:38:13;95401.25;;;7.66
40624;BMP280;26325;48.594;11.650;2023-04-01T04:40:39;95402.78;;;7.62
40624;BMP280;26325;48.594;11.650;2023-04-01T04:43:05;95401.53;;;7.65
40624;BMP280;26325;48.594;11.650;2023-04-01T04:45:31;95409.50;;;7.68
40624;BMP280;26325;48.594;11.650;2023-04-01T04:47:56;95411.53;;;7.61
40624;BMP280;26325;48.594;11.650;2023-04-01T04:50:22;95407.22;;;7.72
40624;BMP280;26325;48.594;11.650;2023-04-01T04:52:49;95407.94;;;7.67
40624;BMP280;26325;48.594;11.650;2023-04-01T04:55:14;95404.13;;;7.75
40624;BMP280;26325;48.594;11.650;2023-04-01T04:57:40;95404.91;;;7.75
40624;BMP280;26325;48.594;11.650;2023-04-01T05:00:07;95403.63;;;7.73
40624;BMP280;26325;48.594;11.650;2023-04-01T05:02:33;95409.25;;;7.70
40624;BMP280;26325;48.594;11.650;2023-04-01T05:04:58;95408.72;;;7.68
40624;BMP280;26325;48.594;11.650;2023-04-01T05:07:24;95411.81;;;7.70
40624;BMP280;26325;48.594;11.650;2023-04-01T05:09:49;95408.47;;;7.64
40624;BMP280;26325;48.594;11.650;2023-04-01T05:12:15;95405.91;;;7.69
40624;BMP280;26325;48.594;11.650;2023-04-01T05:14:40;95407.94;;;7.67
40624;BMP280;26325;48.594;11.650;2023-04-01T05:17:10;95424.44;;;7.71
40624;BMP280;26325;48.594;11.650;2023-04-01T05:19:35;95416.19;;;7.69
40624;BMP280;26325;48.594;11.650;2023-04-01T05:22:01;95413.13;;;7.77
40624;BMP280;26325;48.594;11.650;2023-04-01T05:24:26;95421.91;;;7.81
40624;BMP280;26325;48.594;11.650;2023-04-01T05:26:52;95422.94;;;7.80
40624;BMP280;26325;48.594;11.650;2023-04-01T05:29:17;95424.19;;;7.78
40624;BMP280;26325;48.594;11.650;2023-04-01T05:31:45;95424.50;;;7.86
40624;BMP280;26325;48.594;11.650;2023-04-01T05:34:10;95425.81;;;7.93
40624;BMP280;26325;48.594;11.650;2023-04-01T05:36:36;95436.09;;;7.93
40624;BMP280;26325;48.594;11.650;2023-04-01T05:39:02;95430.72;;;7.95
40624;BMP280;26325;48.594;11.650;2023-04-01T05:41:36;95428.38;;;7.93
40624;BMP280;26325;48.594;11.650;2023-04-01T05:44:01;95429.19;;;7.98
40624;BMP280;26325;48.594;11.650;2023-04-01T05:46:27;95414.34;;;8.10
40624;BMP280;26325;48.594;11.650;2023-04-01T05:48:52;95413.84;;;8.13
40624;BMP280;26325;48.594;11.650;2023-04-01T05:51:18;95412.34;;;8.17
40624;BMP280;26325;48.594;11.650;2023-04-01T05:53:43;95421.63;;;8.28
40624;BMP280;26325;48.594;11.650;2023-04-01T05:56:09;95421.09;;;8.21
40624;BMP280;26325;48.594;11.650;2023-04-01T05:58:35;95417.50;;;8.22
40624;BMP280;26325;48.594;11.650;2023-04-01T06:01:09;95417.00;;;8.30
40624;BMP280;26325;48.594;11.650;2023-04-01T06:03:35;95418.03;;;8.29
40624;BMP280;26325;48.594;11.650;2023-04-01T06:06:00;95437.59;;;8.35
40624;BMP280;26325;48.594;11.650;2023-04-01T06:08:26;95424.22;;;8.33
40624;BMP280;26325;48.594;11.650;2023-04-01T06:11:10;95422.69;;;8.32
40624;BMP280;26325;48.594;11.650;2023-04-01T06:21:48;95415.25;;;8.45
40624;BMP280;26325;48.594;11.650;2023-04-01T06:48:57;95414.91;;;10.74
40624;BMP280;26325;48.594;11.650;2023-04-01T06:51:57;95421.00;;;10.45
40624;BMP280;26325;48.594;11.650;2023-04-01T06:54:31;95426.63;;;9.66
40624;BMP280;26325;48.594;11.650;2023-04-01T06:59:47;95434.66;;;9.50
40624;BMP280;26325;48.594;11.650;2023-04-01T07:02:36;95427.16;;;9.58
40624;BMP280;26325;48.594;11.650;2023-04-01T07:05:03;95432.84;;;9.40
40624;BMP280;26325;48.594;11.650;2023-04-01T07:07:41;95439.31;;;9.28
40624;BMP280;26325;48.594;11.650;2023-04-01T07:10:34;95435.19;;;9.17
40624;BMP280;26325;48.594;11.650;2023-04-01T07:13:04;95432.59;;;9.32
40624;BMP280;26325;48.594;11.650;2023-04-01T07:15:41;95444.22;;;9.20
40624;BMP280;26325;48.594;11.650;2023-04-01T07:18:32;95425.91;;;9.31
40624;BMP280;26325;48.594;11.650;2023-04-01T07:21:00;95433.63;;;9.16
40624;BMP280;26325;48.594;11.650;2023-04-01T07:23:31;95432.38;;;9.19
40624;BMP280;26325;48.594;11.650;2023-04-01T07:26:11;95427.44;;;9.22
40624;BMP280;26325;48.594;11.650;2023-04-01T07:28:39;95431.81;;;9.22
40624;BMP280;26325;48.594;11.650;2023-04-01T07:33:42;95424.06;;;9.85
40624;BMP280;26325;48.594;11.650;2023-04-01T07:36:39;95418.28;;;10.17
40624;BMP280;26325;48.594;11.650;2023-04-01T07:55:41;95421.56;;;11.22
40624;BMP280;26325;48.594;11.650;2023-04-01T08:06:32;95417.81;;;12.16
40624;BMP280;26325;48.594;11.650;2023-04-01T08:22:29;95419.16;;;10.93
40624;BMP280;26325;48.594;11.650;2023-04-01T08:25:00;95416.09;;;10.91
40624;BMP280;26325;48.594;11.650;2023-04-01T08:27:37;95404.94;;;11.00
40624;BMP280;26325;48.594;11.650;2023-04-01T08:35:20;95411.88;;;11.04
40624;BMP280;26325;48.594;11.650;2023-04-01T08:37:49;95394.19;;;10.84
40624;BMP280;26325;48.594;11.650;2023-04-01T08:43:16;95405.03;;;10.38
40624;BMP280;26325;48.594;11.650;2023-04-01T08:57:21;95398.50;;;10.93
40624;BMP280;26325;48.594;11.650;2023-04-01T09:05:25;95385.25;;;11.04
40624;BMP280;26325;48.594;11.650;2023-04-01T09:10:40;95385.91;;;11.19
40624;BMP280;26325;48.594;11.650;2023-04-01T09:24:46;95380.28;;;11.73
40624;BMP280;26325;48.594;11.650;2023-04-01T09:27:28;95390.25;;;11.84
40624;BMP280;26325;48.594;11.650;2023-04-01T09:32:42;95384.22;;;11.38
40624;BMP280;26325;48.594;11.650;2023-04-01T09:38:21;95395.84;;;11.07
40624;BMP280;26325;48.594;11.650;2023-04-01T09:40:55;95395.06;;;11.07
40624;BMP280;26325;48.594;11.650;2023-04-01T09:43:29;95390.09;;;11.10
40624;BMP280;26325;48.594;11.650;2023-04-01T09:46:18;95393.44;;;10.83
40624;BMP280;26325;48.594;11.650;2023-04-01T10:36:48;95352.31;;;11.52
40624;BMP280;26325;48.594;11.650;2023-04-01T11:09:50;95375.75;;;11.32
40624;BMP280;26325;48.594;11.650;2023-04-01T11:12:45;95381.69;;;11.33
40624;BMP280;26325;48.594;11.650;2023-04-01T11:44:31;95420.50;;;10.43
40624;BMP280;26325;48.594;11.650;2023-04-01T11:49:57;95407.72;;;10.14
40624;BMP280;26325;48.594;11.650;2023-04-01T12:24:06;95424.88;;;9.17
40624;BMP280;26325;48.594;11.650;2023-04-01T12:34:59;95411.22;;;8.93
40624;BMP280;26325;48.594;11.650;2023-04-01T12:56:41;95417.91;;;9.03
40624;BMP280;26325;48.594;11.650;2023-04-01T13:08:27;95418.47;;;9.20
40624;BMP280;26325;48.594;11.650;2023-04-01T13:20:02;95422.31;;;9.42
40624;BMP280;26325;48.594;11.650;2023-04-01T13:25:19;95425.91;;;9.41
40624;BMP280;26325;48.594;11.650;2023-04-01T13:27:53;95426.91;;;9.50
40624;BMP280;26325;48.594;11.650;2023-04-01T13:30:33;95423.81;;;9.48
40624;BMP280;26325;48.594;11.650;2023-04-01T13:33:27;95421.47;;;9.66
40624;BMP280;26325;48.594;11.650;2023-04-01T13:36:34;95436.19;;;9.70
40624;BMP280;26325;48.594;11.650;2023-04-01T14:01:18;95440.81;;;9.92
40624;BMP280;26325;48.594;11.650;2023-04-01T14:04:27;95442.63;;;9.82
40624;BMP280;26325;48.594;11.650;2023-04-01T14:07:18;95432.75;;;10.13
40624;BMP280;26325;48.594;11.650;2023-04-01T14:28:25;95430.75;;;9.81
40624;BMP280;26325;48.594;11.650;2023-04-01T14:37:25;95416.53;;;10.03
40624;BMP280;26325;48.594;11.650;2023-04-01T14:50:46;95428.56;;;10.27
40624;BMP280;26325;48.594;11.650;2023-04-01T14:53:17;95442.72;;;10.34
40624;BMP280;26325;48.594;11.650;2023-04-01T14:55:52;95446.94;;;10.11
40624;BMP280;26325;48.594;11.650;2023-04-01T14:58:22;95424.75;;;10.15
40624;BMP280;26325;48.594;11.650;2023-04-01T15:03:20;95429.56;;;10.41
40624;BMP280;26325;48.594;11.650;2023-04-01T15:06:05;95427.41;;;10.52
40624;BMP280;26325;48.594;11.650;2023-04-01T15:25:36;95450.94;;;10.46
40624;BMP280;26325;48.594;11.650;2023-04-01T15:33:52;95442.72;;;10.34
40624;BMP280;26325;48.594;11.650;2023-04-01T15:48:20;95467.56;;;10.16
40624;BMP280;26325;48.594;11.650;2023-04-01T15:59:09;95484.09;;;10.05
40624;BMP280;26325;48.594;11.650;2023-04-01T16:01:59;95480.25;;;10.03
40624;BMP280;26325;48.594;11.650;2023-04-01T16:04:48;95489.75;;;10.07
40624;BMP280;26325;48.594;11.650;2023-04-01T16:15:27;95483.03;;;10.16
40624;BMP280;26325;48.594;11.650;2023-04-01T16:20:55;95482.56;;;9.99
40624;BMP280;26325;48.594;11.650;2023-04-01T16:23:43;95484.34;;;9.99
40624;BMP280;26325;48.594;11.650;2023-04-01T16:34:35;95487.44;;;10.10
40624;BMP280;26325;48.594;11.650;2023-04-01T16:37:10;95485.63;;;10.11
40624;BMP280;26325;48.594;11.650;2023-04-01T16:39:50;95491.84;;;10.05
40624;BMP280;26325;48.594;11.650;2023-04-01T16:47:50;95490.28;;;10.09
40624;BMP280;26325;48.594;11.650;2023-04-01T16:58:09;95494.91;;;10.07
40624;BMP280;26325;48.594;11.650;2023-04-01T17:00:50;95497.00;;;10.05
40624;BMP280;26325;48.594;11.650;2023-04-01T17:06:46;95491.84;;;10.15
40624;BMP280;26325;48.594;11.650;2023-04-01T17:20:00;95502.41;;;10.08
40624;BMP280;26325;48.594;11.650;2023-04-01T17:25:20;95524.34;;;10.01
40624;BMP280;26325;48.594;11.650;2023-04-01T17:46:59;95542.94;;;9.79
40624;BMP280;26325;48.594;11.650;2023-04-01T17:52:30;95551.66;;;9.73
40624;BMP280;26325;48.594;11.650;2023-04-01T17:57:54;95555.03;;;9.69
40624;BMP280;26325;48.594;11.650;2023-04-01T18:00:37;95548.06;;;9.59
40624;BMP280;26325;48.594;11.650;2023-04-01T18:24:41;95583.84;;;9.27
40624;BMP280;26325;48.594;11.650;2023-04-01T18:34:54;95586.66;;;9.30
40624;BMP280;26325;48.594;11.650;2023-04-01T18:37:27;95595.16;;;9.31
40624;BMP280;26325;48.594;11.650;2023-04-01T18:40:19;95603.97;;;9.44
40624;BMP280;26325;48.594;11.650;2023-04-01T18:45:50;95608.88;;;9.46
40624;BMP280;26325;48.594;11.650;2023-04-01T18:48:40;95607.28;;;9.40
40624;BMP280;26325;48.594;11.650;2023-04-01T18:54:05;95614.25;;;9.39
40624;BMP280;26325;48.594;11.650;2023-04-01T18:59:10;95625.84;;;9.37
40624;BMP280;26325;48.594;11.650;2023-04-01T19:06:53;95627.13;;;9.34
40624;BMP280;26325;48.594;11.650;2023-04-01T19:17:20;95648.00;;;9.33
40624;BMP280;26325;48.594;11.650;2023-04-01T19:20:20;95654.44;;;9.35
40624;BMP280;26325;48.594;11.650;2023-04-01T19:23:16;95654.19;;;9.37
40624;BMP280;26325;48.594;11.650;2023-04-01T19:25:51;95660.88;;;9.38
40624;BMP280;26325;48.594;11.650;2023-04-01T19:28:34;95665.25;;;9.32
40624;BMP280;26325;48.594;11.650;2023-04-01T19:31:48;95655.22;;;9.36
40624;BMP280;26325;48.594;11.650;2023-04-01T19:37:02;95661.13;;;9.27
40624;BMP280;26325;48.594;11.650;2023-04-01T19:39:43;95661.91;;;9.27
40624;BMP280;26325;48.594;11.650;2023-04-01T19:50:55;95664.22;;;9.29
40624;BMP280;26325;48.594;11.650;2023-04-01T19:58:33;95669.88;;;9.26
40624;BMP280;26325;48.594;11.650;2023-04-01T20:01:00;95668.59;;;9.28
40624;BMP280;26325;48.594;11.650;2023-04-01T20:03:48;95672.97;;;9.32
40624;BMP280;26325;48.594;11.650;2023-04-01T20:06:48;95667.34;;;9.40
40624;BMP280;26325;48.594;11.650;2023-04-01T20:09:47;95675.59;;;9.42
40624;BMP280;26325;48.594;11.650;2023-04-01T20:14:56;95680.50;;;9.49
40624;BMP280;26325;48.594;11.650;2023-04-01T20:17:27;95678.97;;;9.52
40624;BMP280;26325;48.594;11.650;2023-04-01T20:19:59;95680.00;;;9.56
40624;BMP280;26325;48.594;11.650;2023-04-01T20:25:26;95683.84;;;9.44
40624;BMP280;26325;48.594;11.650;2023-04-01T20:28:04;95687.16;;;9.35
40624;BMP280;26325;48.594;11.650;2023-04-01T20:36:09;95684.56;;;9.30
40624;BMP280;26325;48.594;11.650;2023-04-01T20:49:54;95706.19;;;9.29
40624;BMP280;26325;48.594;11.650;2023-04-01T20:52:44;95699.47;;;9.23
40624;BMP280;26325;48.594;11.650;2023-04-01T20:58:01;95701.50;;;9.16
40624;BMP280;26325;48.594;11.650;2023-04-01T21:06:39;95711.78;;;9.07
40624;BMP280;26325;48.594;11.650;2023-04-01T21:09:21;95715.09;;;9.02
40624;BMP280;26325;48.594;11.650;2023-04-01T21:52:47;95738.88;;;8.78
40624;BMP280;26325;48.594;11.650;2023-04-01T21:58:43;95750.53;;;8.86
40624;BMP280;26325;48.594;11.650;2023-04-01T22:07:20;95752.84;;;8.87
40624;BMP280;26325;48.594;11.650;2023-04-01T22:10:30;95753.91;;;8.91
40624;BMP280;26325;48.594;11.650;2023-04-01T22:13:16;95760.09;;;8.90
40624;BMP280;26325;48.594;11.650;2023-04-01T22:18:46;95751.25;;;8.76
40624;BMP280;26325;48.594;11.650;2023-04-01T22:21:27;95754.34;;;8.78
40624;BMP280;26325;48.594;11.650;2023-04-01T22:24:36;95758.44;;;8.75
40624;BMP280;26325;48.594;11.650;2023-04-01T22:30:26;95763.84;;;8.73
40624;BMP280;26325;48.594;11.650;2023-04-01T22:32:57;95763.13;;;8.82
40624;BMP280;26325;48.594;11.650;2023-04-01T22:35:41;95762.31;;;8.77
40624;BMP280;26325;48.594;11.650;2023-04-01T22:38:49;95773.06;;;8.69
40624;BMP280;26325;48.594;11.650;2023-04-01T22:41:27;95769.22;;;8.72
40624;BMP280;26325;48.594;11.650;2023-04-01T22:43:55;95775.63;;;8.69
40624;BMP280;26325;48.594;11.650;2023-04-01T22:54:37;95788.00;;;8.67
40624;BMP280;26325;48.594;11.650;2023-04-01T22:57:28;95778.47;;;8.68
40624;BMP280;26325;48.594;11.650;2023-04-01T23:00:17;95779.25;;;8.68
40624;BMP280;26325;48.594;11.650;2023-04-01T23:05:29;95776.16;;;8.66
40624;BMP280;26325;48.594;11.650;2023-04-01T23:08:02;95778.66;;;8.61
40624;BMP280;26325;48.594;11.650;2023-04-01T23:10:42;95779.34;;;8.52
40624;BMP280;26325;48.594;11.650;2023-04-01T23:16:09;95777.84;;;8.56
40624;BMP280;26325;48.594;11.650;2023-04-01T23:18:48;95787.34;;;8.51
40624;BMP280;26325;48.594;11.650;2023-04-01T23:21:37;95788.44;;;8.59
40624;BMP280;26325;48.594;11.650;2023-04-01T23:24:27;95796.50;;;8.68
40624;BMP280;26325;48.594;11.650;2023-04-01T23:29:23;95804.91;;;8.58
40624;BMP280;26325;48.594;11.650;2023-04-01T23:31:59;95807.19;;;8.55
40624;BMP280;26325;48.594;11.650;2023-04-01T23:34:28;95806.38;;;8.50
40624;BMP280;26325;48.594;11.650;2023-04-01T23:37:05;95808.75;;;8.61
40624;BMP280;26325;48.594;11.650;2023-04-01T23:39:36;95803.88;;;8.59
40624;BMP280;26325;48.594;11.650;2023-04-01T23:42:22;95812.91;;;8.62
40624;BMP280;26325;48.594;11.650;2023-04-01T23:44:49;95819.06;;;8.61
40624;BMP280;26325;48.594;11.650;2023-04-01T23:47:19;95813.44;;;8.64
40624;BMP280;26325;48.594;11.650;2023-04-01T23:55:27;95815.00;;;8.65
